sensor_id;sensor_type;location;lat;lon;timestamp;P1;P2;P0
44871;PMS7003;30602;51.060;17.226;2023-08-06T00:03:23;2;2;2
44871;PMS7003;30602;51.060;17.226;2023-08-06T00:07:18;2;2;2
44871;PMS7003;30602;51.060;17.226;2023-08-06T00:11:01;3;2;2
44871;PMS7003;30602;51.060;17.226;2023-08-06T00:14:36;4;2;2
44871;PMS7003;30602;51.060;17.226;2023-08-06T00:18:01;2;2;1
44871;PMS7003;30602;51.060;17.226;2023-08-06T00:21:24;2;1;1
44871;PMS7003;30602;51.060;17.226;2023-08-06T00:25:09;1;1;1
44871;PMS7003;30602;51.060;17.226;2023-08-06T00:29:15;2;1;1
44871;PMS7003;30602;51.060;17.226;2023-08-06T00:32:39;2;1;0
44871;PMS7003;30602;51.060;17.226;2023-08-06T00:36:55;1;1;1
44871;PMS7003;30602;51.060;17.226;2023-08-06T00:40:32;2;1;1
44871;PMS7003;30602;51.060;17.226;2023-08-06T00:44:16;2;1;1
44871;PMS7003;30602;51.060;17.226;2023-08-06T00:48:12;1;1;1
44871;PMS7003;30602;51.060;17.226;2023-08-06T00:51:47;1;1;1
44871;PMS7003;30602;51.060;17.226;2023-08-06T00:55:12;1;1;0
44871;PMS7003;30602;51.060;17.226;2023-08-06T00:59:25;1;1;1
44871;PMS7003;30602;51.060;17.226;2023-08-06T01:03:12;0;0;0
44871;PMS7003;30602;51.060;17.226;2023-08-06T01:19:00;0;0;0
44871;PMS7003;30602;51.060;17.226;2023-08-06T01:22:25;2;1;1
44871;PMS7003;30602;51.060;17.226;2023-08-06T01:26:26;0;0;0
44871;PMS7003;30602;51.060;17.226;2023-08-06T01:30:30;0;0;0
44871;PMS7003;30602;51.060;17.226;2023-08-06T01:34:21;1;1;0
44871;PMS7003;30602;51.060;17.226;2023-08-06T01:38:05;0;0;0
44871;PMS7003;30602;51.060;17.226;2023-08-06T01:41:53;1;1;1
44871;PMS7003;30602;51.060;17.226;2023-08-06T01:45:47;1;1;1
44871;PMS7003;30602;51.060;17.226;2023-08-06T01:49:11;1;1;1
44871;PMS7003;30602;51.060;17.226;2023-08-06T01:52:55;1;1;0
44871;PMS7003;30602;51.060;17.226;2023-08-06T01:56:38;0;0;0
44871;PMS7003;30602;51.060;17.226;2023-08-06T02:00:13;0;0;0
44871;PMS7003;30602;51.060;17.226;2023-08-06T02:03:37;0;0;0
44871;PMS7003;30602;51.060;17.226;2023-08-06T02:07:42;0;0;0
44871;PMS7003;30602;51.060;17.226;2023-08-06T02:11:37;0;0;0
44871;PMS7003;30602;51.060;17.226;2023-08-06T02:15:11;0;0;0
44871;PMS7003;30602;51.060;17.226;2023-08-06T02:18:45;0;0;0
44871;PMS7003;30602;51.060;17.226;2023-08-06T02:26:31;0;0;0
44871;PMS7003;30602;51.060;17.226;2023-08-06T02:34:01;0;0;0
44871;PMS7003;30602;51.060;17.226;2023-08-06T02:37:36;0;0;0
44871;PMS7003;30602;51.060;17.226;2023-08-06T02:44:52;0;0;0
44871;PMS7003;30602;51.060;17.226;2023-08-06T02:48:47;0;0;0
44871;PMS7003;30602;51.060;17.226;2023-08-06T02:52:28;0;0;0
44871;PMS7003;30602;51.060;17.226;2023-08-06T02:55:50;0;0;0
44871;PMS7003;30602;51.060;17.226;2023-08-06T03:00:31;0;0;0
44871;PMS7003;30602;51.060;17.226;2023-08-06T03:04:58;0;0;0
44871;PMS7003;30602;51.060;17.226;2023-08-06T03:08:43;0;0;0
44871;PMS7003;30602;51.060;17.226;2023-08-06T03:12:08;0;0;0
44871;PMS7003;30602;51.060;17.226;2023-08-06T03:16:26;0;0;0
44871;PMS7003;30602;51.060;17.226;2023-08-06T03:20:09;0;0;0
44871;PMS7003;30602;51.060;17.226;2023-08-06T03:24:13;0;0;0
44871;PMS7003;30602;51.060;17.226;2023-08-06T03:27:56;0;0;0
44871;PMS7003;30602;51.060;17.226;2023-08-06T03:31:53;0;0;0
44871;PMS7003;30602;51.060;17.226;2023-08-06T03:36:21;0;0;0
44871;PMS7003;30602;51.060;17.226;2023-08-06T03:40:05;0;0;0
44871;PMS7003;30602;51.060;17.226;2023-08-06T03:44:01;0;0;0
44871;PMS7003;30602;51.060;17.226;2023-08-06T03:48:17;0;0;0
44871;PMS7003;30602;51.060;17.226;2023-08-06T03:52:23;0;0;0
44871;PMS7003;30602;51.060;17.226;2023-08-06T03:56:22;0;0;0
44871;PMS7003;30602;51.060;17.226;2023-08-06T04:00:07;0;0;0
44871;PMS7003;30602;51.060;17.226;2023-08-06T04:04:06;0;0;0
44871;PMS7003;30602;51.060;17.226;2023-08-06T04:07:53;0;0;0
44871;PMS7003;30602;51.060;17.226;2023-08-06T04:11:41;0;0;0
44871;PMS7003;30602;51.060;17.226;2023-08-06T04:15:43;0;0;0
44871;PMS7003;30602;51.060;17.226;2023-08-06T04:19:27;0;0;0
44871;PMS7003;30602;51.060;17.226;2023-08-06T04:23:06;0;0;0
44871;PMS7003;30602;51.060;17.226;2023-08-06T04:26:52;0;0;0
44871;PMS7003;30602;51.060;17.226;2023-08-06T04:30:41;0;0;0
44871;PMS7003;30602;51.060;17.226;2023-08-06T04:34:07;0;0;0
44871;PMS7003;30602;51.060;17.226;2023-08-06T04:37:46;0;0;0
44871;PMS7003;30602;51.060;17.226;2023-08-06T04:41:23;0;0;0
44871;PMS7003;30602;51.060;17.226;2023-08-06T04:44:45;0;0;0
44871;PMS7003;30602;51.060;17.226;2023-08-06T04:48:18;0;0;0
44871;PMS7003;30602;51.060;17.226;2023-08-06T04:51:53;0;0;0
44871;PMS7003;30602;51.060;17.226;2023-08-06T04:55:26;0;0;0
44871;PMS7003;30602;51.060;17.226;2023-08-06T04:58:48;0;0;0
44871;PMS7003;30602;51.060;17.226;2023-08-06T05:03:17;0;0;0
44871;PMS7003;30602;51.060;17.226;2023-08-06T05:06:57;0;0;0
44871;PMS7003;30602;51.060;17.226;2023-08-06T05:10:26;0;0;0
44871;PMS7003;30602;51.060;17.226;2023-08-06T05:13:49;0;0;0
44871;PMS7003;30602;51.060;17.226;2023-08-06T05:17:27;0;0;0
44871;PMS7003;30602;51.060;17.226;2023-08-06T05:20:47;0;0;0
44871;PMS7003;30602;51.060;17.226;2023-08-06T05:24:30;0;0;0
44871;PMS7003;30602;51.060;17.226;2023-08-06T05:28:44;0;0;0
44871;PMS7003;30602;51.060;17.226;2023-08-06T05:32:26;0;0;0
44871;PMS7003;30602;51.060;17.226;2023-08-06T05:35:48;0;0;0
44871;PMS7003;30602;51.060;17.226;2023-08-06T05:40:15;0;0;0
44871;PMS7003;30602;51.060;17.226;2023-08-06T05:47:49;0;0;0
44871;PMS7003;30602;51.060;17.226;2023-08-06T05:55:40;0;0;0
44871;PMS7003;30602;51.060;17.226;2023-08-06T05:59:21;0;0;0
44871;PMS7003;30602;51.060;17.226;2023-08-06T06:03:04;0;0;0
44871;PMS7003;30602;51.060;17.226;2023-08-06T06:06:55;0;0;0
44871;PMS7003;30602;51.060;17.226;2023-08-06T06:10:48;0;0;0
44871;PMS7003;30602;51.060;17.226;2023-08-06T06:14:28;0;0;0
44871;PMS7003;30602;51.060;17.226;2023-08-06T06:18:23;0;0;0
44871;PMS7003;30602;51.060;17.226;2023-08-06T06:21:57;0;0;0
44871;PMS7003;30602;51.060;17.226;2023-08-06T06:25:49;0;0;0
44871;PMS7003;30602;51.060;17.226;2023-08-06T06:30:21;0;0;0
44871;PMS7003;30602;51.060;17.226;2023-08-06T06:34:17;0;0;0
44871;PMS7003;30602;51.060;17.226;2023-08-06T06:38:00;0;0;0
44871;PMS7003;30602;51.060;17.226;2023-08-06T06:41:34;0;0;0
44871;PMS7003;30602;51.060;17.226;2023-08-06T06:45:18;0;0;0
44871;PMS7003;30602;51.060;17.226;2023-08-06T06:48:50;0;0;0
44871;PMS7003;30602;51.060;17.226;2023-08-06T06:52:58;0;0;0
44871;PMS7003;30602;51.060;17.226;2023-08-06T06:56:22;0;0;0
44871;PMS7003;30602;51.060;17.226;2023-08-06T07:00:05;0;0;0
44871;PMS7003;30602;51.060;17.226;2023-08-06T07:03:55;0;0;0
44871;PMS7003;30602;51.060;17.226;2023-08-06T07:07:39;0;0;0
44871;PMS7003;30602;51.060;17.226;2023-08-06T07:11:33;0;0;0
44871;PMS7003;30602;51.060;17.226;2023-08-06T07:15:09;0;0;0
44871;PMS7003;30602;51.060;17.226;2023-08-06T07:22:55;0;0;0
44871;PMS7003;30602;51.060;17.226;2023-08-06T07:26:17;0;0;0
44871;PMS7003;30602;51.060;17.226;2023-08-06T07:29:51;0;0;0
44871;PMS7003;30602;51.060;17.226;2023-08-06T07:33:53;0;0;0
44871;PMS7003;30602;51.060;17.226;2023-08-06T07:41:58;0;0;0
44871;PMS7003;30602;51.060;17.226;2023-08-06T07:46:06;0;0;0
44871;PMS7003;30602;51.060;17.226;2023-08-06T07:49:47;0;0;0
44871;PMS7003;30602;51.060;17.226;2023-08-06T07:53:23;0;0;0
44871;PMS7003;30602;51.060;17.226;2023-08-06T07:57:15;0;0;0
44871;PMS7003;30602;51.060;17.226;2023-08-06T08:00:59;0;0;0
44871;PMS7003;30602;51.060;17.226;2023-08-06T08:04:38;0;0;0
44871;PMS7003;30602;51.060;17.226;2023-08-06T08:08:20;0;0;0
44871;PMS7003;30602;51.060;17.226;2023-08-06T08:12:45;0;0;0
44871;PMS7003;30602;51.060;17.226;2023-08-06T08:16:29;0;0;0
44871;PMS7003;30602;51.060;17.226;2023-08-06T08:20:04;0;0;0
44871;PMS7003;30602;51.060;17.226;2023-08-06T08:23:48;0;0;0
44871;PMS7003;30602;51.060;17.226;2023-08-06T08:27:32;0;0;0
44871;PMS7003;30602;51.060;17.226;2023-08-06T08:31:20;0;0;0
44871;PMS7003;30602;51.060;17.226;2023-08-06T08:35:02;0;0;0
44871;PMS7003;30602;51.060;17.226;2023-08-06T08:38:28;0;0;0
44871;PMS7003;30602;51.060;17.226;2023-08-06T08:42:27;0;0;0
44871;PMS7003;30602;51.060;17.226;2023-08-06T08:45:53;0;0;0
44871;PMS7003;30602;51.060;17.226;2023-08-06T08:49:33;0;0;0
44871;PMS7003;30602;51.060;17.226;2023-08-06T08:53:54;0;0;0
44871;PMS7003;30602;51.060;17.226;2023-08-06T08:58:00;1;0;0
44871;PMS7003;30602;51.060;17.226;2023-08-06T09:01:36;0;0;0
44871;PMS7003;30602;51.060;17.226;2023-08-06T09:05:03;2;1;0
44871;PMS7003;30602;51.060;17.226;2023-08-06T09:12:24;3;1;1
44871;PMS7003;30602;51.060;17.226;2023-08-06T09:16:08;0;0;0
44871;PMS7003;30602;51.060;17.226;2023-08-06T09:24:00;0;0;0
44871;PMS7003;30602;51.060;17.226;2023-08-06T09:27:56;0;0;0
44871;PMS7003;30602;51.060;17.226;2023-08-06T09:31:32;0;0;0
44871;PMS7003;30602;51.060;17.226;2023-08-06T09:35:35;0;0;0
44871;PMS7003;30602;51.060;17.226;2023-08-06T09:43:25;0;0;0
44871;PMS7003;30602;51.060;17.226;2023-08-06T09:47:04;0;0;0
44871;PMS7003;30602;51.060;17.226;2023-08-06T09:50:41;0;0;0
44871;PMS7003;30602;51.060;17.226;2023-08-06T09:54:49;0;0;0
44871;PMS7003;30602;51.060;17.226;2023-08-06T09:58:48;0;0;0
44871;PMS7003;30602;51.060;17.226;2023-08-06T10:03:14;0;0;0
44871;PMS7003;30602;51.060;17.226;2023-08-06T10:06:58;0;0;0
44871;PMS7003;30602;51.060;17.226;2023-08-06T10:10:53;0;0;0
44871;PMS7003;30602;51.060;17.226;2023-08-06T10:15:01;0;0;0
44871;PMS7003;30602;51.060;17.226;2023-08-06T10:19:05;0;0;0
44871;PMS7003;30602;51.060;17.226;2023-08-06T10:22:46;0;0;0
44871;PMS7003;30602;51.060;17.226;2023-08-06T10:30:57;0;0;0
44871;PMS7003;30602;51.060;17.226;2023-08-06T10:39:13;0;0;0
44871;PMS7003;30602;51.060;17.226;2023-08-06T10:43:25;0;0;0
44871;PMS7003;30602;51.060;17.226;2023-08-06T10:50:53;0;0;0
44871;PMS7003;30602;51.060;17.226;2023-08-06T10:54:38;0;0;0
44871;PMS7003;30602;51.060;17.226;2023-08-06T10:58:03;0;0;0
44871;PMS7003;30602;51.060;17.226;2023-08-06T11:01:28;0;0;0
44871;PMS7003;30602;51.060;17.226;2023-08-06T11:09:35;0;0;0
44871;PMS7003;30602;51.060;17.226;2023-08-06T11:13:16;0;0;0
44871;PMS7003;30602;51.060;17.226;2023-08-06T11:17:13;0;0;0
44871;PMS7003;30602;51.060;17.226;2023-08-06T11:21:19;0;0;0
44871;PMS7003;30602;51.060;17.226;2023-08-06T11:29:11;0;0;0
44871;PMS7003;30602;51.060;17.226;2023-08-06T11:36:40;0;0;0
44871;PMS7003;30602;51.060;17.226;2023-08-06T11:40:28;1;0;0
44871;PMS7003;30602;51.060;17.226;2023-08-06T11:44:10;0;0;0
44871;PMS7003;30602;51.060;17.226;2023-08-06T11:48:24;0;0;0
44871;PMS7003;30602;51.060;17.226;2023-08-06T11:52:41;0;0;0
44871;PMS7003;30602;51.060;17.226;2023-08-06T11:56:18;0;0;0
44871;PMS7003;30602;51.060;17.226;2023-08-06T11:59:45;0;0;0
44871;PMS7003;30602;51.060;17.226;2023-08-06T12:06:54;0;0;0
44871;PMS7003;30602;51.060;17.226;2023-08-06T12:14:39;0;0;0
44871;PMS7003;30602;51.060;17.226;2023-08-06T12:18:57;0;0;0
44871;PMS7003;30602;51.060;17.226;2023-08-06T12:22:41;0;0;0
44871;PMS7003;30602;51.060;17.226;2023-08-06T12:26:30;0;0;0
44871;PMS7003;30602;51.060;17.226;2023-08-06T12:30:35;0;0;0
44871;PMS7003;30602;51.060;17.226;2023-08-06T12:34:14;0;0;0
44871;PMS7003;30602;51.060;17.226;2023-08-06T12:37:37;0;0;0
44871;PMS7003;30602;51.060;17.226;2023-08-06T12:42:19;0;0;0
44871;PMS7003;30602;51.060;17.226;2023-08-06T12:45:44;0;0;0
44871;PMS7003;30602;51.060;17.226;2023-08-06T12:49:40;0;0;0
44871;PMS7003;30602;51.060;17.226;2023-08-06T12:53:23;0;0;0
44871;PMS7003;30602;51.060;17.226;2023-08-06T12:57:02;0;0;0
44871;PMS7003;30602;51.060;17.226;2023-08-06T13:01:09;1;0;0
44871;PMS7003;30602;51.060;17.226;2023-08-06T13:04:32;0;0;0
44871;PMS7003;30602;51.060;17.226;2023-08-06T13:08:38;0;0;0
44871;PMS7003;30602;51.060;17.226;2023-08-06T13:12:51;2;0;0
44871;PMS7003;30602;51.060;17.226;2023-08-06T13:16:20;0;0;0
44871;PMS7003;30602;51.060;17.226;2023-08-06T13:19:42;0;0;0
44871;PMS7003;30602;51.060;17.226;2023-08-06T13:23:20;0;0;0
44871;PMS7003;30602;51.060;17.226;2023-08-06T13:27:17;0;0;0
44871;PMS7003;30602;51.060;17.226;2023-08-06T13:30:58;0;0;0
44871;PMS7003;30602;51.060;17.226;2023-08-06T13:34:54;1;0;0
44871;PMS7003;30602;51.060;17.226;2023-08-06T13:38:58;0;0;0
44871;PMS7003;30602;51.060;17.226;2023-08-06T13:42:33;1;0;0
44871;PMS7003;30602;51.060;17.226;2023-08-06T13:46:27;0;0;0
44871;PMS7003;30602;51.060;17.226;2023-08-06T13:50:20;0;0;0
44871;PMS7003;30602;51.060;17.226;2023-08-06T13:53:47;1;0;0
44871;PMS7003;30602;51.060;17.226;2023-08-06T13:57:28;0;0;0
44871;PMS7003;30602;51.060;17.226;2023-08-06T14:01:21;0;0;0
44871;PMS7003;30602;51.060;17.226;2023-08-06T14:05:15;0;0;0
44871;PMS7003;30602;51.060;17.226;2023-08-06T14:09:32;0;0;0
44871;PMS7003;30602;51.060;17.226;2023-08-06T14:13:31;0;0;0
44871;PMS7003;30602;51.060;17.226;2023-08-06T14:17:18;0;0;0
44871;PMS7003;30602;51.060;17.226;2023-08-06T14:20:45;0;0;0
44871;PMS7003;30602;51.060;17.226;2023-08-06T14:24:20;0;0;0
44871;PMS7003;30602;51.060;17.226;2023-08-06T14:27:45;0;0;0
44871;PMS7003;30602;51.060;17.226;2023-08-06T14:31:27;0;0;0
44871;PMS7003;30602;51.060;17.226;2023-08-06T14:35:11;1;0;0
44871;PMS7003;30602;51.060;17.226;2023-08-06T14:38:55;0;0;0
44871;PMS7003;30602;51.060;17.226;2023-08-06T14:42:21;0;0;0
44871;PMS7003;30602;51.060;17.226;2023-08-06T14:45:56;0;0;0
44871;PMS7003;30602;51.060;17.226;2023-08-06T14:49:37;0;0;0
44871;PMS7003;30602;51.060;17.226;2023-08-06T14:53:13;1;0;0
44871;PMS7003;30602;51.060;17.226;2023-08-06T14:57:04;0;0;0
44871;PMS7003;30602;51.060;17.226;2023-08-06T15:00:27;1;0;0
44871;PMS7003;30602;51.060;17.226;2023-08-06T15:04:04;0;0;0
44871;PMS7003;30602;51.060;17.226;2023-08-06T15:08:19;0;0;0
44871;PMS7003;30602;51.060;17.226;2023-08-06T15:11:44;1;1;1
44871;PMS7003;30602;51.060;17.226;2023-08-06T15:19:25;11;10;9
44871;PMS7003;30602;51.060;17.226;2023-08-06T15:23:12;19;16;13
44871;PMS7003;30602;51.060;17.226;2023-08-06T15:26:35;9;7;6
44871;PMS7003;30602;51.060;17.226;2023-08-06T15:30:30;5;3;3
44871;PMS7003;30602;51.060;17.226;2023-08-06T15:33:53;4;2;2
44871;PMS7003;30602;51.060;17.226;2023-08-06T15:38:00;7;7;7
44871;PMS7003;30602;51.060;17.226;2023-08-06T15:41:21;6;4;4
44871;PMS7003;30602;51.060;17.226;2023-08-06T15:44:45;2;2;2
44871;PMS7003;30602;51.060;17.226;2023-08-06T15:48:30;2;2;2
44871;PMS7003;30602;51.060;17.226;2023-08-06T15:51:52;5;4;3
44871;PMS7003;30602;51.060;17.226;2023-08-06T15:55:47;10;8;6
44871;PMS7003;30602;51.060;17.226;2023-08-06T16:03:43;5;4;3
44871;PMS7003;30602;51.060;17.226;2023-08-06T16:07:24;6;6;5
44871;PMS7003;30602;51.060;17.226;2023-08-06T16:10:46;13;9;7
44871;PMS7003;30602;51.060;17.226;2023-08-06T16:14:27;17;15;12
44871;PMS7003;30602;51.060;17.226;2023-08-06T16:17:52;7;7;6
44871;PMS7003;30602;51.060;17.226;2023-08-06T16:21:14;8;8;6
44871;PMS7003;30602;51.060;17.226;2023-08-06T16:25:08;7;5;5
44871;PMS7003;30602;51.060;17.226;2023-08-06T16:29:06;7;6;4
44871;PMS7003;30602;51.060;17.226;2023-08-06T16:32:48;12;9;8
44871;PMS7003;30602;51.060;17.226;2023-08-06T16:36:45;6;5;5
44871;PMS7003;30602;51.060;17.226;2023-08-06T16:40:30;6;3;3
44871;PMS7003;30602;51.060;17.226;2023-08-06T16:48:11;11;9;7
44871;PMS7003;30602;51.060;17.226;2023-08-06T16:52:09;14;13;10
44871;PMS7003;30602;51.060;17.226;2023-08-06T16:55:54;4;4;3
44871;PMS7003;30602;51.060;17.226;2023-08-06T16:59:42;7;6;5
44871;PMS7003;30602;51.060;17.226;2023-08-06T17:03:25;4;4;4
44871;PMS7003;30602;51.060;17.226;2023-08-06T17:07:01;2;2;2
44871;PMS7003;30602;51.060;17.226;2023-08-06T17:10:44;2;2;2
44871;PMS7003;30602;51.060;17.226;2023-08-06T17:14:30;3;2;2
44871;PMS7003;30602;51.060;17.226;2023-08-06T17:17:53;3;2;2
44871;PMS7003;30602;51.060;17.226;2023-08-06T17:21:13;2;2;2
44871;PMS7003;30602;51.060;17.226;2023-08-06T17:24:33;5;2;2
44871;PMS7003;30602;51.060;17.226;2023-08-06T17:28:13;5;5;4
44871;PMS7003;30602;51.060;17.226;2023-08-06T17:31:37;3;3;2
44871;PMS7003;30602;51.060;17.226;2023-08-06T17:34:57;1;1;1
44871;PMS7003;30602;51.060;17.226;2023-08-06T17:38:30;2;2;2
44871;PMS7003;30602;51.060;17.226;2023-08-06T17:42:06;2;2;2
44871;PMS7003;30602;51.060;17.226;2023-08-06T17:46:03;3;3;2
44871;PMS7003;30602;51.060;17.226;2023-08-06T17:49:59;4;4;4
44871;PMS7003;30602;51.060;17.226;2023-08-06T17:53:42;3;3;2
44871;PMS7003;30602;51.060;17.226;2023-08-06T17:57:06;5;3;2
44871;PMS7003;30602;51.060;17.226;2023-08-06T18:01:17;3;3;3
44871;PMS7003;30602;51.060;17.226;2023-08-06T18:05:22;9;8;6
44871;PMS7003;30602;51.060;17.226;2023-08-06T18:08:50;5;5;5
44871;PMS7003;30602;51.060;17.226;2023-08-06T18:12:13;6;5;5
44871;PMS7003;30602;51.060;17.226;2023-08-06T18:15:36;5;3;3
44871;PMS7003;30602;51.060;17.226;2023-08-06T18:19:16;3;2;2
44871;PMS7003;30602;51.060;17.226;2023-08-06T18:22:40;6;4;3
44871;PMS7003;30602;51.060;17.226;2023-08-06T18:26:12;6;2;2
44871;PMS7003;30602;51.060;17.226;2023-08-06T18:30:04;3;3;2
44871;PMS7003;30602;51.060;17.226;2023-08-06T18:37:30;3;2;2
44871;PMS7003;30602;51.060;17.226;2023-08-06T18:41:00;6;6;5
44871;PMS7003;30602;51.060;17.226;2023-08-06T18:44:22;4;3;2
44871;PMS7003;30602;51.060;17.226;2023-08-06T18:47:46;4;3;2
44871;PMS7003;30602;51.060;17.226;2023-08-06T18:51:39;4;4;3
44871;PMS7003;30602;51.060;17.226;2023-08-06T18:55:34;4;4;4
44871;PMS7003;30602;51.060;17.226;2023-08-06T18:59:33;6;3;2
44871;PMS7003;30602;51.060;17.226;2023-08-06T19:03:26;5;5;4
44871;PMS7003;30602;51.060;17.226;2023-08-06T19:07:11;7;7;6
44871;PMS7003;30602;51.060;17.226;2023-08-06T19:10:58;6;6;4
44871;PMS7003;30602;51.060;17.226;2023-08-06T19:14:19;6;5;4
44871;PMS7003;30602;51.060;17.226;2023-08-06T19:18:17;6;6;4
44871;PMS7003;30602;51.060;17.226;2023-08-06T19:21:51;3;3;2
44871;PMS7003;30602;51.060;17.226;2023-08-06T19:25:46;2;2;2
44871;PMS7003;30602;51.060;17.226;2023-08-06T19:29:56;5;4;2
44871;PMS7003;30602;51.060;17.226;2023-08-06T19:37:11;7;4;4
44871;PMS7003;30602;51.060;17.226;2023-08-06T19:41:07;4;4;3
44871;PMS7003;30602;51.060;17.226;2023-08-06T19:45:29;5;5;4
44871;PMS7003;30602;51.060;17.226;2023-08-06T19:49:21;6;5;4
44871;PMS7003;30602;51.060;17.226;2023-08-06T19:53:35;7;6;5
44871;PMS7003;30602;51.060;17.226;2023-08-06T19:57:56;10;6;5
44871;PMS7003;30602;51.060;17.226;2023-08-06T20:01:39;6;6;5
44871;PMS7003;30602;51.060;17.226;2023-08-06T20:05:02;5;5;3
44871;PMS7003;30602;51.060;17.226;2023-08-06T20:08:46;4;4;4
44871;PMS7003;30602;51.060;17.226;2023-08-06T20:12:11;7;6;4
44871;PMS7003;30602;51.060;17.226;2023-08-06T20:16:09;5;4;3
44871;PMS7003;30602;51.060;17.226;2023-08-06T20:19:34;7;6;4
44871;PMS7003;30602;51.060;17.226;2023-08-06T20:22:57;4;4;2
44871;PMS7003;30602;51.060;17.226;2023-08-06T20:26:33;4;4;3
44871;PMS7003;30602;51.060;17.226;2023-08-06T20:30:20;4;4;4
44871;PMS7003;30602;51.060;17.226;2023-08-06T20:33:55;6;6;3
44871;PMS7003;30602;51.060;17.226;2023-08-06T20:41:11;5;5;4
44871;PMS7003;30602;51.060;17.226;2023-08-06T20:45:30;7;5;5
44871;PMS7003;30602;51.060;17.226;2023-08-06T20:49:01;6;5;4
44871;PMS7003;30602;51.060;17.226;2023-08-06T20:52:28;3;3;2
44871;PMS7003;30602;51.060;17.226;2023-08-06T20:56:33;4;4;3
44871;PMS7003;30602;51.060;17.226;2023-08-06T20:59:53;7;5;4
44871;PMS7003;30602;51.060;17.226;2023-08-06T21:03:14;4;4;3
44871;PMS7003;30602;51.060;17.226;2023-08-06T21:06:38;7;5;4
44871;PMS7003;30602;51.060;17.226;2023-08-06T21:10:19;6;5;4
44871;PMS7003;30602;51.060;17.226;2023-08-06T21:14:13;5;4;3
44871;PMS7003;30602;51.060;17.226;2023-08-06T21:17:32;5;4;3
44871;PMS7003;30602;51.060;17.226;2023-08-06T21:21:24;7;6;4
44871;PMS7003;30602;51.060;17.226;2023-08-06T21:24:49;5;4;3
44871;PMS7003;30602;51.060;17.226;2023-08-06T21:28:55;4;4;3
44871;PMS7003;30602;51.060;17.226;2023-08-06T21:32:19;7;4;3
44871;PMS7003;30602;51.060;17.226;2023-08-06T21:39:57;5;3;2
44871;PMS7003;30602;51.060;17.226;2023-08-06T21:43:43;6;4;3
44871;PMS7003;30602;51.060;17.226;2023-08-06T21:47:08;2;1;1
44871;PMS7003;30602;51.060;17.226;2023-08-06T21:51:13;3;3;3
44871;PMS7003;30602;51.060;17.226;2023-08-06T21:54:40;4;3;2
44871;PMS7003;30602;51.060;17.226;2023-08-06T21:58:02;5;3;3
44871;PMS7003;30602;51.060;17.226;2023-08-06T22:01:47;4;4;3
44871;PMS7003;30602;51.060;17.226;2023-08-06T22:05:07;4;4;3
44871;PMS7003;30602;51.060;17.226;2023-08-06T22:08:34;4;2;2
44871;PMS7003;30602;51.060;17.226;2023-08-06T22:12:16;7;6;3
44871;PMS7003;30602;51.060;17.226;2023-08-06T22:15:39;5;3;2
44871;PMS7003;30602;51.060;17.226;2023-08-06T22:19:42;6;4;4
44871;PMS7003;30602;51.060;17.226;2023-08-06T22:23:25;5;4;2
44871;PMS7003;30602;51.060;17.226;2023-08-06T22:26:57;4;3;3
44871;PMS7003;30602;51.060;17.226;2023-08-06T22:30:54;5;3;2
44871;PMS7003;30602;51.060;17.226;2023-08-06T22:34:48;2;2;2
44871;PMS7003;30602;51.060;17.226;2023-08-06T22:38:24;5;3;2
44871;PMS7003;30602;51.060;17.226;2023-08-06T22:42:18;3;2;2
44871;PMS7003;30602;51.060;17.226;2023-08-06T22:45:55;4;3;2
44871;PMS7003;30602;51.060;17.226;2023-08-06T22:49:37;3;2;2
44871;PMS7003;30602;51.060;17.226;2023-08-06T22:53:54;3;3;2
44871;PMS7003;30602;51.060;17.226;2023-08-06T22:57:41;5;4;3
44871;PMS7003;30602;51.060;17.226;2023-08-06T23:01:50;5;4;3
44871;PMS7003;30602;51.060;17.226;2023-08-06T23:05:31;4;3;3
44871;PMS7003;30602;51.060;17.226;2023-08-06T23:09:14;3;3;3
44871;PMS7003;30602;51.060;17.226;2023-08-06T23:12:34;3;3;3
44871;PMS7003;30602;51.060;17.226;2023-08-06T23:16:40;3;3;3
44871;PMS7003;30602;51.060;17.226;2023-08-06T23:20:38;7;2;2
44871;PMS7003;30602;51.060;17.226;2023-08-06T23:24:00;4;4;2
44871;PMS7003;30602;51.060;17.226;2023-08-06T23:27:51;2;1;1
44871;PMS7003;30602;51.060;17.226;2023-08-06T23:31:25;3;3;2
44871;PMS7003;30602;51.060;17.226;2023-08-06T23:35:39;3;3;2
44871;PMS7003;30602;51.060;17.226;2023-08-06T23:39:36;4;3;2
44871;PMS7003;30602;51.060;17.226;2023-08-06T23:43:05;2;2;2
44871;PMS7003;30602;51.060;17.226;2023-08-06T23:46:50;3;2;2
44871;PMS7003;30602;51.060;17.226;2023-08-06T23:50:14;3;3;2
44871;PMS7003;30602;51.060;17.226;2023-08-06T23:53:52;4;3;2
44871;PMS7003;30602;51.060;17.226;2023-08-06T23:57:35;4;3;2
